• Join FlightAware (Why Join?)
  • Login
  • US Flag 
08:25PM EDT


 

Airport Tracker/Info


-or-


 

Live Flight TrackerFlight Track Log ✈ SWA1668 ✈ 01-May-2013 ✈ KSLC - KPHX

Flight Track Log - Related Links

Times and Time Zones

All times are in EDT time to prevent confusion due to time zone crossing. See the SWA1668 flight status page for this flight to view local times or setup timezone preferences in your user account.

Time Position Orientation Groundspeed Altitude Reporting Facility
EDT Latitude Longitude Course Direction KTS MPH feet Rate Location/Type
12:59AM 40.8128 -112.0303 300° West 174 200 6,400  Level Salt Lake Center
12:59AM 40.8208 -112.0736 284° West 216 249 7,900 2,700 Climbing Salt Lake Center
01:00AM 40.8281 -112.1156 283° West 247 284 9,200 3,060 Climbing Salt Lake Center
01:01AM 40.7922 -112.2114 244° Southwest 313 360 12,800 3,720 Climbing Salt Lake Center
01:02AM 40.6969 -112.2389 192° South 348 400 16,800 3,420 Climbing Salt Lake Center
01:03AM 40.5914 -112.2778 196° South 387 445 19,800 3,000 Climbing Salt Lake Center
01:04AM 40.4756 -112.3142 193° South 425 489 22,900 2,760 Climbing Salt Lake Center
01:05AM 40.3356 -112.3608 194° South 434 499 25,500 2,580 Climbing Salt Lake Center
01:06AM 40.2175 -112.4053 196° South 448 516 28,200 2,640 Climbing Salt Lake Center
01:07AM 40.0844 -112.4031 179° South 478 550 30,900 1,860 Climbing Salt Lake Center
01:08AM 39.9511 -112.4039 180° South 480 552 32,000 540 Climbing Salt Lake Center
01:09AM 39.8178 -112.4044 180° South 477 549 32,000 840 Level Salt Lake Center
01:10AM 39.6767 -112.4033 180° South 503 579 33,800 1,440 Climbing Salt Lake Center
01:11AM 39.5372 -112.4031 180° South 503 579 35,000 540 Climbing Salt Lake Center
01:12AM 39.3992 -112.4047 181° South 499 574 35,000  Level Salt Lake Center
01:13AM 39.2606 -112.4039 180° South 498 573 35,000  Level Salt Lake Center
01:14AM 39.1242 -112.4042 180° South 499 574 35,100 1,140 Climbing Salt Lake Center
01:15AM 38.9850 -112.4022 179° South 501 577 37,300 1,920 Climbing Salt Lake Center
01:16AM 38.8453 -112.4019 180° South 502 578 39,100 1,800 Climbing Salt Lake Center
01:17AM 38.7072 -112.4022 180° South 498 573 41,000 900 Climbing Salt Lake Center
01:18AM 38.5778 -112.4025 180° South 474 545 41,000 -300 Level Salt Lake Center
01:19AM 38.4244 -112.4033 180° South 461 531 40,500 -840 Descending Salt Lake Center
01:20AM 38.2911 -112.4025 180° South 476 548 39,400 -1,500 Descending Salt Lake Center
01:21AM 38.1556 -112.4019 180° South 484 557 37,500 -1,920 Descending Salt Lake Center
01:22AM 38.0192 -112.4022 180° South 487 560 35,500 -1,260 Descending Salt Lake Center
01:23AM 37.8828 -112.4017 180° South 488 562 35,000 -300 Descending Salt Lake Center
01:24AM 37.7461 -112.4019 180° South 487 560 35,000  Level Salt Lake Center
01:25AM 37.6111 -112.4008 180° South 484 557 35,000  Level Salt Lake Center
01:26AM 37.4792 -112.4011 180° South 474 545 35,000 -60 Level Salt Lake Center
01:27AM 37.3478 -112.4011 180° South 469 540 34,900 -600 Descending Salt Lake Center
01:28AM 37.2139 -112.4014 180° South 474 545 33,900 -960 Descending Salt Lake Center
01:29AM 37.0786 -112.4017 180° South 481 554 33,000 -480 Descending Salt Lake Center
01:30AM 36.9431 -112.4000 179° South 481 554 33,000 -300 Level Los Angeles Center
01:31AM 36.8097 -112.4008 180° South 478 550 32,400 -900 Descending Los Angeles Center
01:32AM 36.6500 -112.4008 180° South 478 550 31,200 -660 Descending Los Angeles Center
01:34AM 36.5189 -112.4008 180° South 474 545 31,000 -120 Descending Los Angeles Center
01:35AM 36.3611 -112.3997 180° South 473 544 31,000 -180 Level Los Angeles Center
01:36AM 36.2283 -112.4006 180° South 475 547 30,700 -600 Descending Los Angeles Center
01:37AM 36.0953 -112.3997 180° South 477 549 29,700 -780 Descending Los Angeles Center
01:38AM 35.9364 -112.4056 182° South 480 552 29,000 -360 Descending Los Angeles Center
01:39AM 35.8000 -112.4139 183° South 488 562 29,000  Level Los Angeles Center
01:40AM 35.6672 -112.4183 182° South 478 550 29,000  Level Los Angeles Center
01:41AM 35.5342 -112.3953 172° South 481 554 29,000  Level Los Angeles Center
01:42AM 35.3733 -112.3669 172° South 483 556 29,000  Level Albuquerque Center
01:43AM 35.2400 -112.3419 171° South 483 556 29,000  Level Albuquerque Center
01:44AM 35.1050 -112.3183 172° South 486 559 29,000  Level Albuquerque Center
01:45AM 34.9706 -112.2947 172° South 487 560 29,000  Level Albuquerque Center
01:46AM 34.8375 -112.2714 172° South 485 558 29,000 -240 Level Albuquerque Center
01:47AM 34.7081 -112.2486 172° South 482 555 28,600 -1,320 Descending Albuquerque Center
01:48AM 34.5872 -112.2272 172° South 450 518 26,400 -2,460 Descending Albuquerque Center
01:49AM 34.4678 -112.2047 171° South 438 504 23,700 -2,640 Descending Albuquerque Center
01:50AM 34.3525 -112.1842 172° South 427 491 21,100 -2,580 Descending Albuquerque Center
01:51AM 34.2428 -112.1642 171° South 409 471 18,600 -2,340 Descending Albuquerque Center
01:52AM 34.1369 -112.1453 172° South 390 449 16,400 -1,740 Descending Albuquerque Center
01:53AM 34.0389 -112.1250 170° South 361 415 15,100 -1,680 Descending Albuquerque Center
01:54AM 33.9247 -112.0947 168° South 354 407 13,100 -1,740 Descending Albuquerque Center
01:55AM 33.8322 -112.0725 169° South 344 396 11,700 -1,560 Descending Albuquerque Center
01:56AM 33.7444 -112.0506 168° South 328 377 10,000 -900 Descending Albuquerque Center
01:57AM 33.6567 -112.0353 172° South 322 371 10,000 -600 Level Albuquerque Center
01:58AM 33.5769 -112.0169 169° South 297 342 8,900 -1,260 Descending Albuquerque Center
01:59AM 33.5303 -111.9497 130° Southeast 287 330 7,500 -1,740 Descending Albuquerque Center
02:00AM 33.5267 -111.8589 93° East 277 319 5,400 -1,440 Descending Albuquerque Center
02:01AM 33.4958 -111.8033 124° Southeast 228 262 4,700 -840 Descending Albuquerque Center
02:02AM 33.4575 -111.8450 222° Southwest 185 213 3,800 -720 Descending Albuquerque Center
02:03AM 33.4353 -111.8883 238° Southwest 147 169 3,300 -780 Descending Albuquerque Center
02:04AM 33.4308 -111.9275 262° West 121 139 2,300 -900 Descending Albuquerque Center
02:05AM 33.4317 -111.9647 272° West 113 130 1,600 -600 Descending Albuquerque Center
02:06AM 33.4303 -112.0075 268° West 112 129 1,100 -540 Descending Albuquerque Center